createdAt,value
2022-08-21T00:03:27.783Z,16.63
2022-08-21T00:13:30.525Z,16.51
2022-08-21T00:23:35.397Z,16.45
2022-08-21T00:33:38.119Z,16.48
2022-08-21T00:43:42.399Z,16.27
2022-08-21T00:53:51.721Z,16.25
2022-08-21T01:03:57.827Z,15.95
2022-08-21T01:14:00.944Z,15.91
2022-08-21T01:24:05.564Z,15.86
2022-08-21T01:34:09.438Z,15.89
2022-08-21T01:44:13.556Z,15.74
2022-08-21T01:54:16.297Z,15.67
2022-08-21T02:04:20.316Z,15.66
2022-08-21T02:14:32.852Z,15.58
2022-08-21T02:24:50.167Z,15.56
2022-08-21T02:34:57.588Z,15.51
2022-08-21T02:45:01.628Z,15.30
2022-08-21T02:55:04.738Z,15.28
2022-08-21T03:05:12.044Z,15.24
2022-08-21T03:15:18.188Z,15.18
2022-08-21T03:25:33.309Z,15.11
2022-08-21T03:35:45.056Z,15.04
2022-08-21T03:45:49.276Z,14.95
2022-08-21T03:55:53.440Z,15.03
2022-08-21T04:05:57.789Z,14.96
2022-08-21T04:16:00.493Z,15.02
2022-08-21T04:26:04.973Z,15.03
2022-08-21T04:36:08.798Z,15.06
2022-08-21T04:46:13.526Z,15.06
2022-08-21T04:56:22.347Z,15.09
2022-08-21T05:06:27.443Z,15.11
2022-08-21T05:16:37.355Z,15.03
2022-08-21T05:26:46.176Z,15.39
2022-08-21T05:36:49.500Z,15.34
2022-08-21T05:46:53.672Z,15.61
2022-08-21T05:56:56.395Z,15.83
2022-08-21T06:07:00.457Z,16.19
2022-08-21T06:17:06.605Z,16.37
2022-08-21T06:27:11.234Z,16.84
2022-08-21T06:37:13.918Z,17.07
2022-08-21T06:47:17.991Z,17.47
2022-08-21T06:57:20.693Z,17.95
2022-08-21T07:07:24.787Z,18.26
2022-08-21T07:17:27.472Z,18.79
2022-08-21T07:27:32.354Z,19.12
2022-08-21T07:37:35.177Z,19.52
2022-08-21T07:47:42.053Z,20.03
2022-08-21T07:57:45.745Z,20.21
2022-08-21T08:07:50.058Z,20.60
2022-08-21T08:17:53.253Z,21.09
2022-08-21T08:27:57.324Z,21.32
2022-08-21T08:38:00.802Z,21.75
2022-08-21T08:48:14.279Z,22.07
2022-08-21T08:58:22.096Z,22.46
2022-08-21T09:08:40.575Z,22.82
2022-08-21T09:18:55.946Z,23.26
2022-08-21T09:29:02.378Z,23.77
2022-08-21T09:39:05.543Z,23.09
2022-08-21T09:49:14.934Z,22.50
2022-08-21T09:59:22.811Z,22.80
2022-08-21T10:09:26.828Z,22.40
2022-08-21T10:19:37.919Z,23.71
2022-08-21T10:29:51.304Z,24.30
2022-08-21T10:40:04.497Z,24.78
2022-08-21T10:50:17.101Z,24.90
2022-08-21T11:00:23.004Z,24.54
2022-08-21T11:10:33.031Z,24.28
2022-08-21T11:20:43.931Z,25.00
2022-08-21T11:30:58.653Z,26.62
2022-08-21T11:41:09.095Z,34.79
2022-08-21T11:51:17.827Z,37.40
2022-08-21T12:01:24.247Z,39.57
2022-08-21T12:11:30.994Z,40.98
2022-08-21T12:21:34.747Z,41.26
2022-08-21T12:31:50.794Z,38.97
2022-08-21T12:42:01.987Z,39.68
2022-08-21T12:52:13.186Z,37.16
2022-08-21T13:02:20.782Z,30.91
2022-08-21T13:12:28.383Z,29.71
2022-08-21T13:22:41.932Z,28.84
2022-08-21T13:32:52.213Z,28.29
2022-08-21T13:42:55.773Z,28.08
2022-08-21T13:53:02.819Z,27.21
2022-08-21T14:03:10.023Z,27.36
2022-08-21T14:13:35.890Z,26.33
2022-08-21T14:23:41.031Z,26.04
2022-08-21T14:33:45.672Z,25.78
2022-08-21T14:43:59.805Z,26.08
2022-08-21T14:54:12.868Z,25.84
2022-08-21T15:04:15.646Z,25.58
2022-08-21T15:14:22.666Z,24.69
2022-08-21T15:24:25.612Z,24.46
2022-08-21T15:34:32.068Z,24.05
2022-08-21T15:44:34.941Z,23.60
2022-08-21T15:54:38.967Z,24.12
2022-08-21T16:04:41.734Z,24.40
2022-08-21T16:14:45.813Z,24.03
2022-08-21T16:24:48.550Z,23.87
2022-08-21T16:34:52.608Z,23.47
2022-08-21T16:44:57.285Z,23.35
2022-08-21T16:55:01.331Z,23.07
2022-08-21T17:05:06.515Z,22.77
2022-08-21T17:15:21.160Z,22.76
2022-08-21T17:25:24.986Z,22.65
2022-08-21T17:35:29.397Z,22.48
2022-08-21T17:45:32.146Z,22.29
2022-08-21T17:55:41.836Z,22.14
2022-08-21T18:05:46.756Z,21.87
2022-08-21T18:15:53.941Z,21.76
2022-08-21T18:25:58.928Z,21.55
2022-08-21T18:36:04.586Z,21.43
2022-08-21T18:46:07.545Z,21.27
2022-08-21T18:56:15.531Z,21.07
2022-08-21T19:06:19.005Z,21.06
2022-08-21T19:16:23.691Z,21.03
2022-08-21T19:26:28.980Z,20.95
2022-08-21T19:36:34.411Z,20.90
2022-08-21T19:46:40.340Z,20.77
2022-08-21T19:56:45.930Z,20.73
2022-08-21T20:06:50.421Z,20.46
2022-08-21T20:16:55.249Z,20.35
2022-08-21T20:26:58.521Z,20.40
2022-08-21T20:37:02.731Z,20.30
2022-08-21T20:47:09.445Z,19.90
2022-08-21T20:57:21.912Z,19.68
2022-08-21T21:07:28.925Z,19.67
2022-08-21T21:17:40.082Z,19.69
2022-08-21T21:27:49.236Z,19.81
2022-08-21T21:37:59.634Z,19.66
2022-08-21T21:48:13.358Z,19.63
2022-08-21T21:58:38.369Z,19.59
2022-08-21T22:08:48.872Z,19.60
2022-08-21T22:18:59.808Z,19.67
2022-08-21T22:29:05.782Z,19.51
2022-08-21T22:39:19.044Z,19.48
2022-08-21T22:49:33.512Z,19.43
2022-08-21T22:59:41.884Z,19.54
2022-08-21T23:09:48.557Z,19.56
2022-08-21T23:20:03.665Z,19.46
2022-08-21T23:30:10.602Z,19.38
2022-08-21T23:51:12.798Z,19.12
